sensor_id;sensor_type;location;lat;lon;timestamp;P1;durP1;ratioP1;P2;durP2;ratioP2
13698;SDS011;6921;53.642;9.956;2024-03-23T00:54:41;21.10;;;3.37;;
13698;SDS011;6921;53.642;9.956;2024-03-23T00:56:45;13.53;;;2.20;;
13698;SDS011;6921;53.642;9.956;2024-03-23T00:58:47;5.93;;;1.00;;
13698;SDS011;6921;53.642;9.956;2024-03-23T01:00:50;13.17;;;2.20;;
13698;SDS011;6921;53.642;9.956;2024-03-23T01:02:52;19.20;;;3.03;;
13698;SDS011;6921;53.642;9.956;2024-03-23T01:04:56;9.20;;;1.53;;
13698;SDS011;6921;53.642;9.956;2024-03-23T01:06:58;13.67;;;2.20;;
13698;SDS011;6921;53.642;9.956;2024-03-23T01:09:00;10.60;;;1.73;;
13698;SDS011;6921;53.642;9.956;2024-03-23T01:11:02;15.33;;;2.47;;
13698;SDS011;6921;53.642;9.956;2024-03-23T01:13:05;14.07;;;2.30;;
13698;SDS011;6921;53.642;9.956;2024-03-23T01:15:06;15.30;;;2.50;;
13698;SDS011;6921;53.642;9.956;2024-03-23T01:17:09;11.30;;;1.83;;
13698;SDS011;6921;53.642;9.956;2024-03-23T01:19:10;8.77;;;1.50;;
13698;SDS011;6921;53.642;9.956;2024-03-23T01:21:15;10.63;;;1.73;;
13698;SDS011;6921;53.642;9.956;2024-03-23T01:23:16;10.00;;;1.70;;
13698;SDS011;6921;53.642;9.956;2024-03-23T01:25:19;12.63;;;2.10;;
13698;SDS011;6921;53.642;9.956;2024-03-23T01:27:20;10.20;;;1.70;;
13698;SDS011;6921;53.642;9.956;2024-03-23T01:29:24;10.83;;;1.77;;
13698;SDS011;6921;53.642;9.956;2024-03-23T01:31:26;7.73;;;1.30;;
13698;SDS011;6921;53.642;9.956;2024-03-23T01:33:29;9.40;;;1.63;;
13698;SDS011;6921;53.642;9.956;2024-03-23T01:35:31;11.17;;;1.87;;
13698;SDS011;6921;53.642;9.956;2024-03-23T01:37:35;9.47;;;1.60;;
13698;SDS011;6921;53.642;9.956;2024-03-23T01:39:36;10.20;;;1.73;;
13698;SDS011;6921;53.642;9.956;2024-03-23T01:41:39;22.07;;;3.57;;
13698;SDS011;6921;53.642;9.956;2024-03-23T01:43:42;26.03;;;4.20;;
13698;SDS011;6921;53.642;9.956;2024-03-23T01:45:45;13.73;;;2.27;;
13698;SDS011;6921;53.642;9.956;2024-03-23T01:47:47;30.63;;;4.87;;
13698;SDS011;6921;53.642;9.956;2024-03-23T01:49:49;30.03;;;4.77;;
13698;SDS011;6921;53.642;9.956;2024-03-23T01:51:52;9.30;;;1.53;;
13698;SDS011;6921;53.642;9.956;2024-03-23T01:53:56;20.33;;;3.33;;
13698;SDS011;6921;53.642;9.956;2024-03-23T01:55:58;24.03;;;3.90;;
13698;SDS011;6921;53.642;9.956;2024-03-23T01:58:00;11.80;;;2.00;;
13698;SDS011;6921;53.642;9.956;2024-03-23T02:00:02;20.40;;;3.33;;
13698;SDS011;6921;53.642;9.956;2024-03-23T02:02:04;32.80;;;5.27;;
13698;SDS011;6921;53.642;9.956;2024-03-23T02:04:08;14.73;;;2.40;;
13698;SDS011;6921;53.642;9.956;2024-03-23T02:06:10;23.77;;;3.80;;
13698;SDS011;6921;53.642;9.956;2024-03-23T02:08:13;22.73;;;3.67;;
13698;SDS011;6921;53.642;9.956;2024-03-23T02:10:16;17.70;;;2.87;;
13698;SDS011;6921;53.642;9.956;2024-03-23T02:12:19;22.07;;;3.50;;
13698;SDS011;6921;53.642;9.956;2024-03-23T02:14:21;9.67;;;1.67;;
13698;SDS011;6921;53.642;9.956;2024-03-23T02:16:24;12.30;;;2.00;;
13698;SDS011;6921;53.642;9.956;2024-03-23T02:18:25;7.80;;;1.30;;
13698;SDS011;6921;53.642;9.956;2024-03-23T02:20:28;11.90;;;1.97;;
13698;SDS011;6921;53.642;9.956;2024-03-23T02:22:35;12.93;;;2.13;;
13698;SDS011;6921;53.642;9.956;2024-03-23T02:24:39;10.10;;;1.70;;
13698;SDS011;6921;53.642;9.956;2024-03-23T02:26:41;12.23;;;2.07;;
13698;SDS011;6921;53.642;9.956;2024-03-23T02:28:43;11.40;;;1.97;;
13698;SDS011;6921;53.642;9.956;2024-03-23T02:30:45;7.93;;;1.37;;
13698;SDS011;6921;53.642;9.956;2024-03-23T02:32:47;13.17;;;2.23;;
13698;SDS011;6921;53.642;9.956;2024-03-23T02:34:49;10.43;;;1.73;;
13698;SDS011;6921;53.642;9.956;2024-03-23T02:36:51;11.23;;;1.90;;
13698;SDS011;6921;53.642;9.956;2024-03-23T02:38:53;7.83;;;1.33;;
13698;SDS011;6921;53.642;9.956;2024-03-23T02:41:02;8.57;;;1.47;;
13698;SDS011;6921;53.642;9.956;2024-03-23T02:43:03;7.03;;;1.27;;
13698;SDS011;6921;53.642;9.956;2024-03-23T02:45:06;8.57;;;1.47;;
13698;SDS011;6921;53.642;9.956;2024-03-23T02:47:08;9.03;;;1.50;;
13698;SDS011;6921;53.642;9.956;2024-03-23T02:49:11;14.30;;;2.37;;
13698;SDS011;6921;53.642;9.956;2024-03-23T02:51:12;11.47;;;1.93;;
13698;SDS011;6921;53.642;9.956;2024-03-23T02:53:15;13.90;;;2.30;;
13698;SDS011;6921;53.642;9.956;2024-03-23T02:55:16;28.90;;;4.57;;
13698;SDS011;6921;53.642;9.956;2024-03-23T02:57:20;14.90;;;2.47;;
13698;SDS011;6921;53.642;9.956;2024-03-23T02:59:22;26.93;;;4.33;;
13698;SDS011;6921;53.642;9.956;2024-03-23T03:01:25;28.60;;;4.57;;
13698;SDS011;6921;53.642;9.956;2024-03-23T03:03:26;14.63;;;2.47;;
13698;SDS011;6921;53.642;9.956;2024-03-23T03:05:29;23.40;;;3.77;;
13698;SDS011;6921;53.642;9.956;2024-03-23T03:07:30;33.17;;;5.27;;
13698;SDS011;6921;53.642;9.956;2024-03-23T03:09:34;18.70;;;2.97;;
13698;SDS011;6921;53.642;9.956;2024-03-23T03:11:35;13.80;;;2.20;;
13698;SDS011;6921;53.642;9.956;2024-03-23T03:13:39;25.13;;;4.10;;
13698;SDS011;6921;53.642;9.956;2024-03-23T03:15:41;27.00;;;4.30;;
13698;SDS011;6921;53.642;9.956;2024-03-23T03:17:43;9.80;;;1.60;;
13698;SDS011;6921;53.642;9.956;2024-03-23T03:19:45;19.77;;;3.23;;
13698;SDS011;6921;53.642;9.956;2024-03-23T03:21:48;25.87;;;4.17;;
13698;SDS011;6921;53.642;9.956;2024-03-23T03:23:49;14.30;;;2.40;;
13698;SDS011;6921;53.642;9.956;2024-03-23T03:25:52;10.37;;;1.63;;
13698;SDS011;6921;53.642;9.956;2024-03-23T03:27:54;12.63;;;2.07;;
13698;SDS011;6921;53.642;9.956;2024-03-23T03:29:59;14.10;;;2.33;;
13698;SDS011;6921;53.642;9.956;2024-03-23T03:32:02;9.33;;;1.57;;
13698;SDS011;6921;53.642;9.956;2024-03-23T03:34:05;6.20;;;1.07;;
13698;SDS011;6921;53.642;9.956;2024-03-23T03:36:06;11.73;;;1.90;;
13698;SDS011;6921;53.642;9.956;2024-03-23T03:38:09;11.70;;;1.93;;
13698;SDS011;6921;53.642;9.956;2024-03-23T03:40:11;11.00;;;1.83;;
13698;SDS011;6921;53.642;9.956;2024-03-23T03:42:15;12.50;;;2.07;;
13698;SDS011;6921;53.642;9.956;2024-03-23T03:44:16;13.63;;;2.27;;
13698;SDS011;6921;53.642;9.956;2024-03-23T03:46:20;10.53;;;1.77;;
13698;SDS011;6921;53.642;9.956;2024-03-23T03:48:22;15.63;;;2.60;;
13698;SDS011;6921;53.642;9.956;2024-03-23T03:50:25;16.80;;;2.77;;
13698;SDS011;6921;53.642;9.956;2024-03-23T03:52:26;9.50;;;1.60;;
13698;SDS011;6921;53.642;9.956;2024-03-23T03:54:29;9.67;;;1.60;;
13698;SDS011;6921;53.642;9.956;2024-03-23T03:56:31;12.27;;;2.03;;
13698;SDS011;6921;53.642;9.956;2024-03-23T03:58:33;8.23;;;1.37;;
13698;SDS011;6921;53.642;9.956;2024-03-23T04:00:35;9.50;;;1.57;;
13698;SDS011;6921;53.642;9.956;2024-03-23T04:02:39;4.63;;;0.90;;
13698;SDS011;6921;53.642;9.956;2024-03-23T04:04:41;12.83;;;2.13;;
13698;SDS011;6921;53.642;9.956;2024-03-23T04:06:43;28.47;;;4.60;;
13698;SDS011;6921;53.642;9.956;2024-03-23T04:08:45;31.37;;;4.90;;
13698;SDS011;6921;53.642;9.956;2024-03-23T04:10:48;5.37;;;0.93;;
13698;SDS011;6921;53.642;9.956;2024-03-23T04:12:49;29.43;;;4.77;;
13698;SDS011;6921;53.642;9.956;2024-03-23T04:14:52;26.13;;;4.17;;
13698;SDS011;6921;53.642;9.956;2024-03-23T04:16:53;13.87;;;2.27;;
13698;SDS011;6921;53.642;9.956;2024-03-23T04:18:58;15.97;;;2.63;;
13698;SDS011;6921;53.642;9.956;2024-03-23T04:20:59;30.43;;;4.93;;
13698;SDS011;6921;53.642;9.956;2024-03-23T04:23:01;11.57;;;1.93;;
13698;SDS011;6921;53.642;9.956;2024-03-23T04:25:04;12.27;;;2.00;;
13698;SDS011;6921;53.642;9.956;2024-03-23T04:27:07;31.57;;;5.00;;
13698;SDS011;6921;53.642;9.956;2024-03-23T04:29:09;21.83;;;3.50;;
13698;SDS011;6921;53.642;9.956;2024-03-23T04:31:11;14.43;;;2.33;;
13698;SDS011;6921;53.642;9.956;2024-03-23T04:33:13;24.63;;;3.97;;
13698;SDS011;6921;53.642;9.956;2024-03-23T04:35:16;33.73;;;5.40;;
13698;SDS011;6921;53.642;9.956;2024-03-23T04:37:20;12.57;;;2.03;;
13698;SDS011;6921;53.642;9.956;2024-03-23T04:39:23;10.43;;;1.73;;
13698;SDS011;6921;53.642;9.956;2024-03-23T04:41:25;14.70;;;2.37;;
13698;SDS011;6921;53.642;9.956;2024-03-23T04:43:27;12.50;;;2.10;;
13698;SDS011;6921;53.642;9.956;2024-03-23T04:45:30;10.77;;;1.73;;
13698;SDS011;6921;53.642;9.956;2024-03-23T04:47:31;17.40;;;2.80;;
13698;SDS011;6921;53.642;9.956;2024-03-23T04:49:35;10.33;;;1.73;;
13698;SDS011;6921;53.642;9.956;2024-03-23T04:51:39;11.00;;;1.80;;
13698;SDS011;6921;53.642;9.956;2024-03-23T04:53:46;8.93;;;1.50;;
13698;SDS011;6921;53.642;9.956;2024-03-23T04:55:49;11.47;;;1.87;;
13698;SDS011;6921;53.642;9.956;2024-03-23T04:57:51;10.30;;;1.70;;
13698;SDS011;6921;53.642;9.956;2024-03-23T04:59:54;10.47;;;1.73;;
13698;SDS011;6921;53.642;9.956;2024-03-23T05:01:55;6.20;;;1.07;;
13698;SDS011;6921;53.642;9.956;2024-03-23T05:03:58;12.43;;;2.03;;
13698;SDS011;6921;53.642;9.956;2024-03-23T05:06:00;12.80;;;2.07;;
13698;SDS011;6921;53.642;9.956;2024-03-23T05:08:04;10.40;;;1.70;;
13698;SDS011;6921;53.642;9.956;2024-03-23T05:10:06;11.00;;;1.80;;
13698;SDS011;6921;53.642;9.956;2024-03-23T05:12:11;6.93;;;1.17;;
13698;SDS011;6921;53.642;9.956;2024-03-23T05:14:13;10.43;;;1.70;;
13698;SDS011;6921;53.642;9.956;2024-03-23T05:16:16;21.03;;;3.37;;
13698;SDS011;6921;53.642;9.956;2024-03-23T05:18:18;25.77;;;4.03;;
13698;SDS011;6921;53.642;9.956;2024-03-23T05:20:21;17.60;;;2.80;;
13698;SDS011;6921;53.642;9.956;2024-03-23T05:22:22;13.33;;;2.10;;
13698;SDS011;6921;53.642;9.956;2024-03-23T05:24:26;32.83;;;5.10;;
13698;SDS011;6921;53.642;9.956;2024-03-23T05:26:29;18.27;;;2.87;;
13698;SDS011;6921;53.642;9.956;2024-03-23T05:28:34;20.27;;;3.13;;
13698;SDS011;6921;53.642;9.956;2024-03-23T05:30:35;33.80;;;5.27;;
13698;SDS011;6921;53.642;9.956;2024-03-23T05:32:38;24.70;;;3.87;;
13698;SDS011;6921;53.642;9.956;2024-03-23T05:34:42;14.43;;;2.30;;
13698;SDS011;6921;53.642;9.956;2024-03-23T05:36:44;25.00;;;4.00;;
13698;SDS011;6921;53.642;9.956;2024-03-23T05:38:46;31.60;;;4.87;;
13698;SDS011;6921;53.642;9.956;2024-03-23T05:40:54;10.70;;;1.73;;
13698;SDS011;6921;53.642;9.956;2024-03-23T05:42:55;26.97;;;4.23;;
13698;SDS011;6921;53.642;9.956;2024-03-23T05:44:58;11.30;;;1.87;;
13698;SDS011;6921;53.642;9.956;2024-03-23T05:47:00;7.93;;;1.33;;
13698;SDS011;6921;53.642;9.956;2024-03-23T05:49:03;17.33;;;2.80;;
13698;SDS011;6921;53.642;9.956;2024-03-23T05:51:04;9.13;;;1.57;;
13698;SDS011;6921;53.642;9.956;2024-03-23T05:53:07;8.90;;;1.47;;
13698;SDS011;6921;53.642;9.956;2024-03-23T05:55:09;8.47;;;1.43;;
13698;SDS011;6921;53.642;9.956;2024-03-23T05:57:13;10.27;;;1.70;;
13698;SDS011;6921;53.642;9.956;2024-03-23T05:59:14;8.00;;;1.30;;
13698;SDS011;6921;53.642;9.956;2024-03-23T06:01:17;11.80;;;1.87;;
13698;SDS011;6921;53.642;9.956;2024-03-23T06:03:19;8.80;;;1.43;;
13698;SDS011;6921;53.642;9.956;2024-03-23T06:05:21;11.03;;;1.77;;
13698;SDS011;6921;53.642;9.956;2024-03-23T06:07:24;8.40;;;1.37;;
13698;SDS011;6921;53.642;9.956;2024-03-23T06:09:28;5.97;;;0.97;;
13698;SDS011;6921;53.642;9.956;2024-03-23T06:11:31;12.10;;;2.00;;
13698;SDS011;6921;53.642;9.956;2024-03-23T06:13:35;12.60;;;2.07;;
13698;SDS011;6921;53.642;9.956;2024-03-23T06:15:37;12.87;;;2.10;;
13698;SDS011;6921;53.642;9.956;2024-03-23T06:17:40;8.13;;;1.33;;
13698;SDS011;6921;53.642;9.956;2024-03-23T06:19:41;36.60;;;5.70;;
13698;SDS011;6921;53.642;9.956;2024-03-23T06:21:44;31.47;;;4.97;;
13698;SDS011;6921;53.642;9.956;2024-03-23T06:23:46;10.80;;;1.73;;
13698;SDS011;6921;53.642;9.956;2024-03-23T06:25:51;36.43;;;5.57;;
13698;SDS011;6921;53.642;9.956;2024-03-23T06:27:53;23.57;;;3.77;;
13698;SDS011;6921;53.642;9.956;2024-03-23T06:29:57;14.40;;;2.30;;
13698;SDS011;6921;53.642;9.956;2024-03-23T06:31:59;26.10;;;4.17;;
13698;SDS011;6921;53.642;9.956;2024-03-23T06:34:02;22.23;;;3.47;;
13698;SDS011;6921;53.642;9.956;2024-03-23T06:36:04;10.03;;;1.67;;
13698;SDS011;6921;53.642;9.956;2024-03-23T06:38:07;31.83;;;4.90;;
13698;SDS011;6921;53.642;9.956;2024-03-23T06:40:08;29.30;;;4.57;;
13698;SDS011;6921;53.642;9.956;2024-03-23T06:42:11;18.97;;;3.00;;
13698;SDS011;6921;53.642;9.956;2024-03-23T06:44:13;9.40;;;1.50;;
13698;SDS011;6921;53.642;9.956;2024-03-23T06:46:17;32.90;;;5.17;;
13698;SDS011;6921;53.642;9.956;2024-03-23T06:48:19;17.03;;;2.73;;
13698;SDS011;6921;53.642;9.956;2024-03-23T06:50:22;16.90;;;2.73;;
13698;SDS011;6921;53.642;9.956;2024-03-23T06:52:23;15.10;;;2.37;;
13698;SDS011;6921;53.642;9.956;2024-03-23T06:54:26;10.27;;;1.70;;
13698;SDS011;6921;53.642;9.956;2024-03-23T06:56:28;15.83;;;2.53;;
13698;SDS011;6921;53.642;9.956;2024-03-23T06:58:30;8.93;;;1.47;;
13698;SDS011;6921;53.642;9.956;2024-03-23T07:00:32;9.33;;;1.53;;
13698;SDS011;6921;53.642;9.956;2024-03-23T07:02:36;10.53;;;1.70;;
13698;SDS011;6921;53.642;9.956;2024-03-23T07:04:38;12.27;;;2.00;;
13698;SDS011;6921;53.642;9.956;2024-03-23T07:06:43;8.57;;;1.40;;
13698;SDS011;6921;53.642;9.956;2024-03-23T07:08:44;5.00;;;0.83;;
13698;SDS011;6921;53.642;9.956;2024-03-23T07:10:47;11.13;;;1.83;;
13698;SDS011;6921;53.642;9.956;2024-03-23T07:12:49;9.70;;;1.60;;
13698;SDS011;6921;53.642;9.956;2024-03-23T07:14:52;7.13;;;1.13;;
13698;SDS011;6921;53.642;9.956;2024-03-23T07:16:53;11.60;;;1.87;;
13698;SDS011;6921;53.642;9.956;2024-03-23T07:18:57;12.23;;;2.00;;
13698;SDS011;6921;53.642;9.956;2024-03-23T07:20:59;12.73;;;2.07;;
13698;SDS011;6921;53.642;9.956;2024-03-23T07:23:01;12.20;;;2.00;;
13698;SDS011;6921;53.642;9.956;2024-03-23T07:25:04;25.83;;;4.07;;
13698;SDS011;6921;53.642;9.956;2024-03-23T07:27:07;10.37;;;1.70;;
13698;SDS011;6921;53.642;9.956;2024-03-23T07:29:10;19.93;;;3.13;;
13698;SDS011;6921;53.642;9.956;2024-03-23T07:31:13;18.63;;;2.97;;
13698;SDS011;6921;53.642;9.956;2024-03-23T07:33:15;10.03;;;1.63;;
13698;SDS011;6921;53.642;9.956;2024-03-23T07:35:19;24.97;;;3.87;;
13698;SDS011;6921;53.642;9.956;2024-03-23T07:37:21;30.10;;;4.73;;
13698;SDS011;6921;53.642;9.956;2024-03-23T07:39:24;8.53;;;1.40;;
13698;SDS011;6921;53.642;9.956;2024-03-23T07:41:28;30.63;;;4.70;;
13698;SDS011;6921;53.642;9.956;2024-03-23T07:43:31;30.60;;;4.73;;
13698;SDS011;6921;53.642;9.956;2024-03-23T07:45:33;11.00;;;1.73;;
13698;SDS011;6921;53.642;9.956;2024-03-23T07:47:35;23.03;;;3.57;;
13698;SDS011;6921;53.642;9.956;2024-03-23T07:49:37;28.10;;;4.37;;
13698;SDS011;6921;53.642;9.956;2024-03-23T07:51:41;14.70;;;2.40;;
13698;SDS011;6921;53.642;9.956;2024-03-23T07:53:45;32.27;;;5.07;;
13698;SDS011;6921;53.642;9.956;2024-03-23T07:55:52;12.53;;;2.07;;
13698;SDS011;6921;53.642;9.956;2024-03-23T07:57:56;12.00;;;1.93;;
13698;SDS011;6921;53.642;9.956;2024-03-23T07:59:57;17.98;;;2.97;;
13698;SDS011;6921;53.642;9.956;2024-03-23T08:02:00;18.77;;;3.05;;
13698;SDS011;6921;53.642;9.956;2024-03-23T08:04:01;15.95;;;2.67;;
13698;SDS011;6921;53.642;9.956;2024-03-23T08:06:08;10.27;;;1.75;;
13698;SDS011;6921;53.642;9.956;2024-03-23T08:08:11;14.60;;;2.65;;
13698;SDS011;6921;53.642;9.956;2024-03-23T08:10:13;16.30;;;2.75;;
13698;SDS011;6921;53.642;9.956;2024-03-23T08:12:18;20.30;;;3.58;;
13698;SDS011;6921;53.642;9.956;2024-03-23T08:14:21;21.88;;;3.75;;
13698;SDS011;6921;53.642;9.956;2024-03-23T08:16:23;9.90;;;1.75;;
13698;SDS011;6921;53.642;9.956;2024-03-23T08:18:26;10.77;;;1.83;;
13698;SDS011;6921;53.642;9.956;2024-03-23T08:20:28;16.38;;;2.70;;
13698;SDS011;6921;53.642;9.956;2024-03-23T08:22:31;10.60;;;1.85;;
13698;SDS011;6921;53.642;9.956;2024-03-23T08:24:36;11.45;;;2.03;;
13698;SDS011;6921;53.642;9.956;2024-03-23T08:26:39;32.28;;;5.38;;
13698;SDS011;6921;53.642;9.956;2024-03-23T08:28:42;22.05;;;3.58;;
13698;SDS011;6921;53.642;9.956;2024-03-23T08:30:46;12.50;;;2.08;;
13698;SDS011;6921;53.642;9.956;2024-03-23T08:32:48;38.25;;;6.32;;
13698;SDS011;6921;53.642;9.956;2024-03-23T08:34:50;29.10;;;4.75;;
13698;SDS011;6921;53.642;9.956;2024-03-23T08:36:52;13.70;;;2.28;;
13698;SDS011;6921;53.642;9.956;2024-03-23T08:38:55;31.05;;;5.05;;
13698;SDS011;6921;53.642;9.956;2024-03-23T08:40:58;29.55;;;4.90;;
13698;SDS011;6921;53.642;9.956;2024-03-23T08:43:02;13.32;;;2.28;;
13698;SDS011;6921;53.642;9.956;2024-03-23T08:45:05;30.38;;;4.95;;
13698;SDS011;6921;53.642;9.956;2024-03-23T08:47:08;31.25;;;5.03;;
13698;SDS011;6921;53.642;9.956;2024-03-23T08:49:10;12.60;;;2.20;;
13698;SDS011;6921;53.642;9.956;2024-03-23T08:51:15;34.58;;;5.53;;
13698;SDS011;6921;53.642;9.956;2024-03-23T08:53:17;35.20;;;5.57;;
13698;SDS011;6921;53.642;9.956;2024-03-23T08:55:20;10.55;;;1.80;;
13698;SDS011;6921;53.642;9.956;2024-03-23T08:57:23;23.27;;;3.90;;
13698;SDS011;6921;53.642;9.956;2024-03-23T08:59:25;16.92;;;2.90;;
13698;SDS011;6921;53.642;9.956;2024-03-23T09:01:27;16.10;;;2.95;;
13698;SDS011;6921;53.642;9.956;2024-03-23T09:03:30;13.50;;;3.33;;
13698;SDS011;6921;53.642;9.956;2024-03-23T09:05:32;14.60;;;5.07;;
13698;SDS011;6921;53.642;9.956;2024-03-23T09:07:36;7.57;;;5.00;;
13698;SDS011;6921;53.642;9.956;2024-03-23T09:09:38;14.77;;;4.95;;
13698;SDS011;6921;53.642;9.956;2024-03-23T09:11:41;17.15;;;5.03;;
13698;SDS011;6921;53.642;9.956;2024-03-23T09:13:44;14.63;;;3.22;;
13698;SDS011;6921;53.642;9.956;2024-03-23T09:15:47;11.98;;;2.85;;
13698;SDS011;6921;53.642;9.956;2024-03-23T09:17:50;17.63;;;3.67;;
13698;SDS011;6921;53.642;9.956;2024-03-23T09:19:51;7.75;;;2.15;;
13698;SDS011;6921;53.642;9.956;2024-03-23T09:21:54;14.80;;;2.92;;
13698;SDS011;6921;53.642;9.956;2024-03-23T09:23:55;8.65;;;1.80;;
13698;SDS011;6921;53.642;9.956;2024-03-23T09:26:02;14.27;;;2.83;;
13698;SDS011;6921;53.642;9.956;2024-03-23T09:28:04;12.77;;;2.45;;
13698;SDS011;6921;53.642;9.956;2024-03-23T09:30:09;16.85;;;3.17;;
13698;SDS011;6921;53.642;9.956;2024-03-23T09:32:10;14.63;;;2.80;;
13698;SDS011;6921;53.642;9.956;2024-03-23T09:34:13;15.77;;;3.35;;
13698;SDS011;6921;53.642;9.956;2024-03-23T09:36:15;20.33;;;4.18;;
13698;SDS011;6921;53.642;9.956;2024-03-23T09:38:18;21.40;;;4.20;;
13698;SDS011;6921;53.642;9.956;2024-03-23T09:40:20;16.23;;;3.42;;
13698;SDS011;6921;53.642;9.956;2024-03-23T09:42:23;11.35;;;2.45;;
13698;SDS011;6921;53.642;9.956;2024-03-23T09:44:25;14.90;;;2.90;;
13698;SDS011;6921;53.642;9.956;2024-03-23T09:46:31;11.30;;;2.20;;
13698;SDS011;6921;53.642;9.956;2024-03-23T09:48:34;11.77;;;2.45;;
13698;SDS011;6921;53.642;9.956;2024-03-23T09:50:38;18.05;;;3.33;;
13698;SDS011;6921;53.642;9.956;2024-03-23T09:52:39;18.33;;;3.30;;
13698;SDS011;6921;53.642;9.956;2024-03-23T09:54:42;8.55;;;1.73;;
13698;SDS011;6921;53.642;9.956;2024-03-23T09:56:44;14.93;;;2.75;;
13698;SDS011;6921;53.642;9.956;2024-03-23T09:58:47;37.65;;;6.70;;
13698;SDS011;6921;53.642;9.956;2024-03-23T10:00:48;34.72;;;6.03;;
13698;SDS011;6921;53.642;9.956;2024-03-23T10:02:53;32.03;;;5.75;;
13698;SDS011;6921;53.642;9.956;2024-03-23T10:04:59;28.83;;;4.97;;
13698;SDS011;6921;53.642;9.956;2024-03-23T10:07:07;32.97;;;5.65;;
13698;SDS011;6921;53.642;9.956;2024-03-23T10:09:16;43.22;;;7.63;;
13698;SDS011;6921;53.642;9.956;2024-03-23T10:11:19;18.75;;;3.70;;
13698;SDS011;6921;53.642;9.956;2024-03-23T10:13:24;53.83;;;9.35;;
13698;SDS011;6921;53.642;9.956;2024-03-23T10:15:27;30.27;;;5.80;;
13698;SDS011;6921;53.642;9.956;2024-03-23T10:17:29;66.53;;;11.23;;
13698;SDS011;6921;53.642;9.956;2024-03-23T10:19:32;24.38;;;7.38;;
13698;SDS011;6921;53.642;9.956;2024-03-23T10:21:35;119.45;;;34.10;;
13698;SDS011;6921;53.642;9.956;2024-03-23T10:23:37;77.05;;;39.92;;
13698;SDS011;6921;53.642;9.956;2024-03-23T10:25:40;160.52;;;66.22;;
13698;SDS011;6921;53.642;9.956;2024-03-23T10:27:41;176.23;;;71.95;;
13698;SDS011;6921;53.642;9.956;2024-03-23T10:29:44;87.30;;;50.55;;
13698;SDS011;6921;53.642;9.956;2024-03-23T10:31:46;83.30;;;44.92;;
13698;SDS011;6921;53.642;9.956;2024-03-23T10:33:50;56.85;;;40.42;;
13698;SDS011;6921;53.642;9.956;2024-03-23T10:35:55;53.50;;;29.27;;
13698;SDS011;6921;53.642;9.956;2024-03-23T10:37:58;41.08;;;19.40;;
13698;SDS011;6921;53.642;9.956;2024-03-23T10:40:00;48.33;;;16.15;;
13698;SDS011;6921;53.642;9.956;2024-03-23T10:42:03;45.72;;;18.40;;
13698;SDS011;6921;53.642;9.956;2024-03-23T10:44:05;40.78;;;13.20;;
13698;SDS011;6921;53.642;9.956;2024-03-23T10:46:08;26.60;;;21.75;;
13698;SDS011;6921;53.642;9.956;2024-03-23T10:48:11;21.60;;;16.58;;
13698;SDS011;6921;53.642;9.956;2024-03-23T10:50:14;20.20;;;11.85;;
13698;SDS011;6921;53.642;9.956;2024-03-23T10:52:17;15.88;;;11.82;;
13698;SDS011;6921;53.642;9.956;2024-03-23T10:54:20;25.13;;;22.67;;
13698;SDS011;6921;53.642;9.956;2024-03-23T10:56:24;54.97;;;39.10;;
13698;SDS011;6921;53.642;9.956;2024-03-23T10:58:30;28.30;;;22.30;;
13698;SDS011;6921;53.642;9.956;2024-03-23T11:00:33;23.58;;;20.77;;
13698;SDS011;6921;53.642;9.956;2024-03-23T11:02:35;35.92;;;28.65;;
13698;SDS011;6921;53.642;9.956;2024-03-23T11:04:37;23.65;;;21.25;;
13698;SDS011;6921;53.642;9.956;2024-03-23T11:06:40;40.58;;;31.60;;
13698;SDS011;6921;53.642;9.956;2024-03-23T11:08:43;27.40;;;24.48;;
13698;SDS011;6921;53.642;9.956;2024-03-23T11:10:46;27.40;;;24.88;;
13698;SDS011;6921;53.642;9.956;2024-03-23T11:12:47;21.75;;;19.27;;
13698;SDS011;6921;53.642;9.956;2024-03-23T11:14:52;9.15;;;7.90;;
13698;SDS011;6921;53.642;9.956;2024-03-23T11:17:08;10.15;;;6.47;;
13698;SDS011;6921;53.642;9.956;2024-03-23T11:19:33;24.67;;;19.20;;
13698;SDS011;6921;53.642;9.956;2024-03-23T11:21:54;25.98;;;19.85;;
13698;SDS011;6921;53.642;9.956;2024-03-23T11:26:15;56.10;;;31.35;;
13698;SDS011;6921;53.642;9.956;2024-03-23T11:28:18;30.88;;;23.15;;
13698;SDS011;6921;53.642;9.956;2024-03-23T11:30:20;49.25;;;21.42;;
13698;SDS011;6921;53.642;9.956;2024-03-23T11:32:24;49.75;;;22.73;;
13698;SDS011;6921;53.642;9.956;2024-03-23T11:34:25;24.52;;;15.27;;
13698;SDS011;6921;53.642;9.956;2024-03-23T11:36:28;50.22;;;19.00;;
13698;SDS011;6921;53.642;9.956;2024-03-23T11:38:30;46.63;;;17.40;;
13698;SDS011;6921;53.642;9.956;2024-03-23T11:40:40;37.72;;;27.08;;
13698;SDS011;6921;53.642;9.956;2024-03-23T11:42:42;63.70;;;35.38;;
13698;SDS011;6921;53.642;9.956;2024-03-23T11:44:44;50.88;;;23.08;;
13698;SDS011;6921;53.642;9.956;2024-03-23T11:46:47;70.10;;;32.92;;
13698;SDS011;6921;53.642;9.956;2024-03-23T11:48:49;58.25;;;26.98;;
13698;SDS011;6921;53.642;9.956;2024-03-23T11:50:54;76.05;;;24.88;;
13698;SDS011;6921;53.642;9.956;2024-03-23T11:53:06;37.90;;;21.33;;
13698;SDS011;6921;53.642;9.956;2024-03-23T11:55:13;41.47;;;15.45;;
13698;SDS011;6921;53.642;9.956;2024-03-23T11:57:17;57.00;;;20.55;;
13698;SDS011;6921;53.642;9.956;2024-03-23T11:59:29;34.58;;;9.70;;
13698;SDS011;6921;53.642;9.956;2024-03-23T12:01:32;62.55;;;10.50;;
13698;SDS011;6921;53.642;9.956;2024-03-23T12:03:34;16.58;;;2.67;;
13698;SDS011;6921;53.642;9.956;2024-03-23T12:05:38;37.28;;;7.45;;
13698;SDS011;6921;53.642;9.956;2024-03-23T12:07:40;23.23;;;4.47;;
13698;SDS011;6921;53.642;9.956;2024-03-23T12:09:43;51.20;;;11.35;;
13698;SDS011;6921;53.642;9.956;2024-03-23T12:11:46;31.95;;;7.28;;
13698;SDS011;6921;53.642;9.956;2024-03-23T12:13:50;38.23;;;7.87;;
13698;SDS011;6921;53.642;9.956;2024-03-23T12:15:52;37.93;;;7.30;;
13698;SDS011;6921;53.642;9.956;2024-03-23T12:18:05;25.57;;;5.57;;
13698;SDS011;6921;53.642;9.956;2024-03-23T12:20:07;16.23;;;3.30;;
13698;SDS011;6921;53.642;9.956;2024-03-23T12:22:10;52.40;;;8.70;;
13698;SDS011;6921;53.642;9.956;2024-03-23T12:24:11;38.10;;;6.50;;
13698;SDS011;6921;53.642;9.956;2024-03-23T12:26:15;37.75;;;7.50;;
13698;SDS011;6921;53.642;9.956;2024-03-23T12:28:18;57.88;;;15.38;;
13698;SDS011;6921;53.642;9.956;2024-03-23T12:30:22;74.45;;;40.00;;
13698;SDS011;6921;53.642;9.956;2024-03-23T12:32:23;125.60;;;54.67;;
13698;SDS011;6921;53.642;9.956;2024-03-23T12:34:26;107.20;;;51.70;;
13698;SDS011;6921;53.642;9.956;2024-03-23T12:36:28;96.45;;;45.20;;
13698;SDS011;6921;53.642;9.956;2024-03-23T12:38:31;42.10;;;23.38;;
13698;SDS011;6921;53.642;9.956;2024-03-23T12:40:32;88.80;;;42.70;;
13698;SDS011;6921;53.642;9.956;2024-03-23T12:42:35;78.85;;;37.88;;
13698;SDS011;6921;53.642;9.956;2024-03-23T12:44:37;88.28;;;43.33;;
13698;SDS011;6921;53.642;9.956;2024-03-23T12:46:41;218.57;;;65.47;;
13698;SDS011;6921;53.642;9.956;2024-03-23T12:48:44;139.97;;;51.20;;
13698;SDS011;6921;53.642;9.956;2024-03-23T12:50:46;134.00;;;49.20;;
13698;SDS011;6921;53.642;9.956;2024-03-23T12:52:48;37.90;;;15.50;;
13698;SDS011;6921;53.642;9.956;2024-03-23T12:54:51;33.03;;;14.70;;
13698;SDS011;6921;53.642;9.956;2024-03-23T12:56:53;114.93;;;47.10;;
13698;SDS011;6921;53.642;9.956;2024-03-23T12:58:56;62.93;;;34.30;;
13698;SDS011;6921;53.642;9.956;2024-03-23T13:00:58;41.17;;;22.60;;
13698;SDS011;6921;53.642;9.956;2024-03-23T13:03:03;85.67;;;36.27;;
13698;SDS011;6921;53.642;9.956;2024-03-23T13:05:06;83.00;;;40.30;;
13698;SDS011;6921;53.642;9.956;2024-03-23T13:07:10;96.88;;;42.08;;
13698;SDS011;6921;53.642;9.956;2024-03-23T13:09:13;183.43;;;60.33;;
13698;SDS011;6921;53.642;9.956;2024-03-23T13:11:22;262.30;;;64.63;;
13698;SDS011;6921;53.642;9.956;2024-03-23T13:13:24;252.33;;;71.73;;
13698;SDS011;6921;53.642;9.956;2024-03-23T13:15:26;195.80;;;63.80;;